createdAt,value
2018-11-07T00:01:39.307Z,29.83
2018-11-07T00:04:07.615Z,27.63
2018-11-07T00:06:35.803Z,29.23
2018-11-07T00:09:05.178Z,29.93
2018-11-07T00:11:33.357Z,29.77
2018-11-07T00:14:01.530Z,29.90
2018-11-07T00:16:29.654Z,29.53
2018-11-07T00:18:57.775Z,29.70
2018-11-07T00:21:25.873Z,30.47
2018-11-07T00:23:54.069Z,31.63
2018-11-07T00:26:22.209Z,30.57
2018-11-07T00:28:50.331Z,31.53
2018-11-07T00:31:18.492Z,31.00
2018-11-07T00:33:46.751Z,33.10
2018-11-07T00:36:14.883Z,31.67
2018-11-07T00:38:42.995Z,31.83
2018-11-07T00:41:11.138Z,31.23
2018-11-07T00:43:39.239Z,30.97
2018-11-07T00:46:07.381Z,30.87
2018-11-07T00:48:35.497Z,33.47
2018-11-07T00:51:03.613Z,31.40
2018-11-07T00:53:31.745Z,33.43
2018-11-07T00:55:59.917Z,32.27
2018-11-07T00:58:28.030Z,31.20
2018-11-07T01:00:56.182Z,30.93
2018-11-07T01:03:24.310Z,33.80
2018-11-07T01:05:52.431Z,31.37
2018-11-07T01:08:20.584Z,32.73
2018-11-07T01:10:48.751Z,31.30
2018-11-07T01:13:16.983Z,30.83
2018-11-07T01:15:45.157Z,30.70
2018-11-07T01:18:13.289Z,31.57
2018-11-07T01:20:41.435Z,30.27
2018-11-07T01:23:09.565Z,30.53
2018-11-07T01:25:37.712Z,31.60
2018-11-07T01:28:06.090Z,29.10
2018-11-07T01:30:34.186Z,29.77
2018-11-07T01:33:02.296Z,29.53
2018-11-07T01:35:30.452Z,29.57
2018-11-07T01:37:58.642Z,29.27
2018-11-07T01:40:26.833Z,29.87
2018-11-07T01:42:55.007Z,29.10
2018-11-07T01:45:23.116Z,30.50
2018-11-07T01:47:51.288Z,31.70
2018-11-07T01:50:19.451Z,30.30
2018-11-07T01:52:47.589Z,28.97
2018-11-07T01:55:15.700Z,29.77
2018-11-07T01:57:43.832Z,30.10
2018-11-07T02:00:12.506Z,29.23
2018-11-07T02:02:41.722Z,30.17
2018-11-07T02:05:09.834Z,29.90
2018-11-07T02:07:38.036Z,31.57
2018-11-07T02:10:07.084Z,31.17
2018-11-07T02:12:35.274Z,29.43
2018-11-07T02:15:03.478Z,30.23
2018-11-07T02:17:31.628Z,30.70
2018-11-07T02:19:59.778Z,30.00
2018-11-07T02:22:28.056Z,30.60
2018-11-07T02:24:56.136Z,29.13
2018-11-07T02:27:24.378Z,32.20
2018-11-07T02:29:52.473Z,30.93
2018-11-07T02:32:20.746Z,30.10
2018-11-07T02:34:48.842Z,28.73
2018-11-07T02:37:16.926Z,29.67
2018-11-07T02:39:45.021Z,29.33
2018-11-07T02:42:13.267Z,29.53
2018-11-07T02:44:41.400Z,29.70
2018-11-07T02:47:09.606Z,28.23
2018-11-07T02:49:37.695Z,28.47
2018-11-07T02:52:05.876Z,28.63
2018-11-07T02:54:34.083Z,30.03
2018-11-07T02:57:02.455Z,30.00
2018-11-07T02:59:30.683Z,29.47
2018-11-07T03:01:58.814Z,29.57
2018-11-07T03:04:26.938Z,27.97
2018-11-07T03:06:55.061Z,29.57
2018-11-07T03:09:23.208Z,29.07
2018-11-07T03:11:51.360Z,30.70
2018-11-07T03:14:19.484Z,29.03
2018-11-07T03:16:47.706Z,31.50
2018-11-07T03:19:15.914Z,29.73
2018-11-07T03:21:44.036Z,28.60
2018-11-07T03:24:12.309Z,29.27
2018-11-07T03:26:40.434Z,28.23
2018-11-07T03:29:08.570Z,31.00
2018-11-07T03:31:36.648Z,29.27
2018-11-07T03:34:04.846Z,27.43
2018-11-07T03:36:33.134Z,28.70
2018-11-07T03:39:01.295Z,28.43
2018-11-07T03:41:29.463Z,27.93
2018-11-07T03:43:57.560Z,28.47
2018-11-07T03:46:25.640Z,27.87
2018-11-07T03:48:53.732Z,30.30
2018-11-07T03:51:21.838Z,30.93
2018-11-07T03:53:49.930Z,30.60
2018-11-07T03:56:18.014Z,31.50
2018-11-07T03:58:46.125Z,32.47
2018-11-07T04:01:14.296Z,30.10
2018-11-07T04:03:42.621Z,28.90
2018-11-07T04:06:10.762Z,29.60
2018-11-07T04:08:38.898Z,31.07
2018-11-07T04:11:07.086Z,29.10
2018-11-07T04:13:35.268Z,29.43
2018-11-07T04:16:03.408Z,30.77
2018-11-07T04:18:31.514Z,30.03
2018-11-07T04:20:59.711Z,29.33
2018-11-07T04:23:27.884Z,28.07
2018-11-07T04:25:56.003Z,29.77
2018-11-07T04:28:24.187Z,29.17
2018-11-07T04:30:52.328Z,30.30
2018-11-07T04:33:20.429Z,29.37
2018-11-07T04:35:48.598Z,30.00
2018-11-07T04:38:16.854Z,28.27
2018-11-07T04:40:45.110Z,29.87
2018-11-07T04:43:13.226Z,30.80
2018-11-07T04:45:41.490Z,29.63
2018-11-07T04:48:09.672Z,29.13
2018-11-07T04:50:37.756Z,30.83
2018-11-07T04:53:05.942Z,30.63
2018-11-07T04:55:34.090Z,30.53
2018-11-07T04:58:02.285Z,28.23
2018-11-07T05:00:30.400Z,31.43
2018-11-07T05:02:58.607Z,30.83
2018-11-07T05:05:26.707Z,29.80
2018-11-07T05:07:54.852Z,31.57
2018-11-07T05:10:23.061Z,31.27
2018-11-07T05:12:51.247Z,31.13
2018-11-07T05:15:19.387Z,33.27
2018-11-07T05:17:47.529Z,30.07
2018-11-07T05:20:15.696Z,31.60
2018-11-07T05:22:43.839Z,31.27
2018-11-07T05:25:12.158Z,31.17
2018-11-07T05:27:40.864Z,33.13
2018-11-07T05:30:09.760Z,33.57
2018-11-07T05:32:37.900Z,32.10
2018-11-07T05:35:06.569Z,33.73
2018-11-07T05:37:34.698Z,32.50
2018-11-07T05:40:02.896Z,31.90
2018-11-07T05:42:30.988Z,32.37
2018-11-07T05:44:59.232Z,33.07
2018-11-07T05:47:27.373Z,31.87
2018-11-07T05:49:55.512Z,31.73
2018-11-07T05:52:23.633Z,31.00
2018-11-07T05:54:51.769Z,32.00
2018-11-07T05:57:19.955Z,30.93
2018-11-07T05:59:48.165Z,32.33
2018-11-07T06:02:16.330Z,35.40
2018-11-07T06:04:44.533Z,32.30
2018-11-07T06:07:12.649Z,33.07
2018-11-07T06:09:40.813Z,32.83
2018-11-07T06:12:08.947Z,31.17
2018-11-07T06:14:37.095Z,34.70
2018-11-07T06:17:05.369Z,31.33
2018-11-07T06:19:33.601Z,31.87
2018-11-07T06:22:01.700Z,31.57
2018-11-07T06:24:29.952Z,33.83
2018-11-07T06:26:58.037Z,32.30
2018-11-07T06:29:26.210Z,33.20
2018-11-07T06:31:54.413Z,32.60
2018-11-07T06:34:22.612Z,36.10
2018-11-07T06:36:50.848Z,35.00
2018-11-07T06:39:19.020Z,33.97
2018-11-07T06:41:47.337Z,36.17
2018-11-07T06:44:15.481Z,34.10
2018-11-07T06:46:43.615Z,32.17
2018-11-07T06:49:11.853Z,33.97
2018-11-07T06:51:40.025Z,34.60
2018-11-07T06:54:08.200Z,35.07
2018-11-07T06:56:36.388Z,37.00
2018-11-07T06:59:04.846Z,36.10
2018-11-07T07:01:33.066Z,37.43
2018-11-07T07:04:01.342Z,33.53
2018-11-07T07:06:29.467Z,34.20
2018-11-07T07:08:57.659Z,34.53
2018-11-07T07:11:25.945Z,36.07
2018-11-07T07:13:54.369Z,33.93
2018-11-07T07:16:22.642Z,32.30
2018-11-07T07:18:50.753Z,35.33
2018-11-07T07:21:18.912Z,35.67
2018-11-07T07:23:47.088Z,34.33
2018-11-07T07:26:15.965Z,41.43
2018-11-07T07:28:44.278Z,36.47
2018-11-07T07:31:12.464Z,35.37
2018-11-07T07:33:41.927Z,36.80
2018-11-07T07:38:53.625Z,36.67
2018-11-07T07:41:21.875Z,35.30
2018-11-07T07:43:50.085Z,36.57
2018-11-07T07:46:18.318Z,36.33
2018-11-07T07:48:46.552Z,35.27
2018-11-07T07:51:14.763Z,33.03
2018-11-07T07:53:42.944Z,34.67
2018-11-07T07:56:11.201Z,35.33
2018-11-07T07:58:39.368Z,34.20
2018-11-07T08:01:07.584Z,34.53
2018-11-07T08:03:35.874Z,36.03
2018-11-07T08:06:04.156Z,34.37
2018-11-07T08:08:32.351Z,35.37
2018-11-07T08:11:00.772Z,36.57
2018-11-07T08:13:29.055Z,34.40
2018-11-07T08:15:57.192Z,33.43
2018-11-07T08:18:25.403Z,34.43
2018-11-07T08:20:53.563Z,32.87
2018-11-07T08:23:21.820Z,33.80
2018-11-07T08:25:50.021Z,33.43
2018-11-07T08:28:18.321Z,34.33
2018-11-07T08:30:46.607Z,34.40
2018-11-07T08:33:14.897Z,33.20
2018-11-07T08:35:43.292Z,35.37
2018-11-07T08:38:11.569Z,34.43
2018-11-07T08:40:39.757Z,32.83
2018-11-07T08:43:08.016Z,33.67
2018-11-07T08:45:36.350Z,33.03
2018-11-07T08:48:04.663Z,34.10
2018-11-07T08:50:32.877Z,34.83
2018-11-07T08:53:01.067Z,33.47
2018-11-07T08:55:29.338Z,35.03
2018-11-07T08:57:57.652Z,34.20
2018-11-07T09:00:25.922Z,34.30
2018-11-07T09:02:54.160Z,34.13
2018-11-07T09:05:23.007Z,33.30
2018-11-07T09:07:51.245Z,34.17
2018-11-07T09:10:20.921Z,32.13
2018-11-07T09:12:49.124Z,35.43
2018-11-07T09:15:18.705Z,34.37
2018-11-07T09:17:47.095Z,34.00
2018-11-07T09:20:19.983Z,36.00
2018-11-07T09:22:48.147Z,36.20
2018-11-07T09:25:17.702Z,34.23
2018-11-07T09:27:47.002Z,33.57
2018-11-07T09:30:17.431Z,33.70
2018-11-07T09:32:45.623Z,33.83
2018-11-07T09:35:14.171Z,32.97
2018-11-07T09:37:42.364Z,32.37
2018-11-07T09:40:12.517Z,32.33
2018-11-07T09:42:41.488Z,31.63
2018-11-07T09:45:11.800Z,33.77
2018-11-07T09:47:40.845Z,33.57
2018-11-07T09:50:09.613Z,34.13
2018-11-07T09:52:38.456Z,36.07
2018-11-07T09:55:08.382Z,33.60
2018-11-07T09:57:36.661Z,36.80
2018-11-07T10:00:06.601Z,35.63
2018-11-07T10:02:34.967Z,33.70
2018-11-07T10:05:03.143Z,35.87
2018-11-07T10:07:31.362Z,34.53
2018-11-07T10:09:59.552Z,34.03
2018-11-07T10:12:27.830Z,34.70
2018-11-07T10:14:55.982Z,34.00
2018-11-07T10:17:24.334Z,34.63
2018-11-07T10:19:52.481Z,34.17
2018-11-07T10:22:20.820Z,32.13
2018-11-07T10:24:48.976Z,32.83
2018-11-07T10:27:18.233Z,32.73
2018-11-07T10:29:49.436Z,32.63
2018-11-07T10:32:17.393Z,33.43
2018-11-07T10:34:45.646Z,33.67
2018-11-07T10:37:14.261Z,31.70
2018-11-07T10:39:42.562Z,32.63
2018-11-07T10:42:10.829Z,33.07
2018-11-07T10:44:39.092Z,32.83
2018-11-07T10:47:07.359Z,31.33
2018-11-07T10:49:35.641Z,31.60
2018-11-07T10:52:03.947Z,32.67
2018-11-07T10:54:32.231Z,32.53
2018-11-07T10:57:00.433Z,32.43
2018-11-07T10:59:28.635Z,32.03
2018-11-07T11:02:02.323Z,32.33
2018-11-07T11:04:30.537Z,31.60
2018-11-07T11:06:58.689Z,32.30
2018-11-07T11:09:26.981Z,32.20
2018-11-07T11:11:55.193Z,31.90
2018-11-07T11:14:23.869Z,30.87
2018-11-07T11:16:52.140Z,31.77
2018-11-07T11:19:20.613Z,31.03
2018-11-07T11:21:48.790Z,31.43
2018-11-07T11:24:17.042Z,29.33
2018-11-07T11:26:45.203Z,29.57
2018-11-07T11:29:13.347Z,32.70
2018-11-07T11:31:41.524Z,30.43
2018-11-07T11:34:09.789Z,31.87
2018-11-07T11:36:37.881Z,31.17
2018-11-07T11:39:08.179Z,30.80
2018-11-07T11:41:36.324Z,30.57
2018-11-07T11:44:05.077Z,32.33
2018-11-07T11:46:33.213Z,29.77
2018-11-07T11:49:01.374Z,30.37
2018-11-07T11:51:29.537Z,31.37
2018-11-07T11:53:57.724Z,32.63
2018-11-07T11:56:26.102Z,32.80
2018-11-07T11:58:54.385Z,30.67
2018-11-07T12:01:22.471Z,32.90
2018-11-07T12:03:50.635Z,31.33
2018-11-07T12:06:18.808Z,30.50
2018-11-07T12:08:46.992Z,31.67
2018-11-07T12:11:15.245Z,28.83
2018-11-07T12:13:43.464Z,30.50
2018-11-07T12:16:11.673Z,30.90
2018-11-07T12:18:39.837Z,31.10
2018-11-07T12:21:08.088Z,30.67
2018-11-07T12:23:36.257Z,30.63
2018-11-07T12:26:04.399Z,31.20
2018-11-07T12:28:32.541Z,33.40
2018-11-07T12:31:00.733Z,29.50
2018-11-07T12:33:28.960Z,30.90
2018-11-07T12:35:57.163Z,32.00
2018-11-07T12:38:25.343Z,29.13
2018-11-07T12:40:53.519Z,29.00
2018-11-07T12:43:21.745Z,29.27
2018-11-07T12:45:49.913Z,30.40
2018-11-07T12:48:18.055Z,28.73
2018-11-07T12:50:46.401Z,28.13
2018-11-07T12:53:14.760Z,30.00
2018-11-07T12:55:42.947Z,42.20
2018-11-07T12:58:11.309Z,40.57
2018-11-07T13:00:39.352Z,32.80
2018-11-07T13:03:07.511Z,31.80
2018-11-07T13:05:35.623Z,33.10
2018-11-07T13:08:03.866Z,29.90
2018-11-07T13:10:32.145Z,30.00
2018-11-07T13:13:00.516Z,29.30
2018-11-07T13:15:28.639Z,32.20
2018-11-07T13:17:56.870Z,30.47
2018-11-07T13:20:26.058Z,30.97
2018-11-07T13:22:54.862Z,29.50
2018-11-07T13:25:23.655Z,29.97
2018-11-07T13:27:51.859Z,31.40
2018-11-07T13:30:21.045Z,28.90
2018-11-07T13:32:49.341Z,31.60
2018-11-07T13:35:18.316Z,31.47
2018-11-07T13:37:47.459Z,29.33
2018-11-07T13:40:17.117Z,29.67
2018-11-07T13:42:45.301Z,30.40
2018-11-07T13:45:14.801Z,30.47
2018-11-07T13:47:44.540Z,30.23
2018-11-07T13:50:13.747Z,30.63
2018-11-07T13:52:42.561Z,28.40
2018-11-07T13:55:11.914Z,29.03
2018-11-07T13:57:40.837Z,30.57
2018-11-07T14:00:11.045Z,32.63
2018-11-07T14:02:39.279Z,29.00
2018-11-07T14:05:08.361Z,30.47
2018-11-07T14:07:36.788Z,31.67
2018-11-07T14:10:06.643Z,30.77
2018-11-07T14:12:34.800Z,31.83
2018-11-07T14:15:02.954Z,33.03
2018-11-07T14:17:31.123Z,32.93
2018-11-07T14:19:59.312Z,33.83
2018-11-07T14:22:27.747Z,33.43
2018-11-07T14:24:55.981Z,33.77
2018-11-07T14:27:24.159Z,34.90
2018-11-07T14:29:52.782Z,32.23
2018-11-07T14:32:21.083Z,34.37
2018-11-07T14:34:49.260Z,33.53
2018-11-07T14:37:17.386Z,33.87
2018-11-07T14:39:45.529Z,33.87
2018-11-07T14:42:13.749Z,33.40
2018-11-07T14:44:41.923Z,39.87
2018-11-07T14:47:10.138Z,32.20
2018-11-07T14:49:38.351Z,32.50
2018-11-07T14:52:06.537Z,33.20
2018-11-07T14:54:34.775Z,34.10
2018-11-07T14:57:03.142Z,33.00
2018-11-07T14:59:31.321Z,34.00
2018-11-07T15:01:59.441Z,32.77
2018-11-07T15:04:27.649Z,34.40
2018-11-07T15:06:55.953Z,34.03
2018-11-07T15:09:24.139Z,35.10
2018-11-07T15:11:52.371Z,33.90
2018-11-07T15:14:20.500Z,33.93
2018-11-07T15:16:48.662Z,35.50
2018-11-07T15:19:16.815Z,33.83
2018-11-07T15:21:44.950Z,35.90
2018-11-07T15:24:13.155Z,34.47
2018-11-07T15:26:41.392Z,35.80
2018-11-07T15:29:09.566Z,36.40
2018-11-07T15:31:37.756Z,34.33
2018-11-07T15:34:06.190Z,33.97
2018-11-07T15:36:34.592Z,36.67
2018-11-07T15:39:02.735Z,35.17
2018-11-07T15:41:30.927Z,34.30
2018-11-07T15:43:59.068Z,34.53
2018-11-07T15:46:27.195Z,33.77
2018-11-07T15:48:55.411Z,36.23
2018-11-07T15:51:28.940Z,39.57
2018-11-07T15:53:57.152Z,38.10
2018-11-07T15:56:25.333Z,39.07
2018-11-07T15:58:53.669Z,36.47
2018-11-07T16:01:21.862Z,36.13
2018-11-07T16:03:50.666Z,37.57
2018-11-07T16:06:20.131Z,37.00
2018-11-07T16:08:48.304Z,37.33
2018-11-07T16:11:16.684Z,37.90
2018-11-07T16:13:45.044Z,37.20
2018-11-07T16:16:13.078Z,36.10
2018-11-07T16:18:41.247Z,37.83
2018-11-07T16:21:09.489Z,38.47
2018-11-07T16:23:37.673Z,34.90
2018-11-07T16:26:05.974Z,39.73
2018-11-07T16:28:34.277Z,40.87
2018-11-07T16:31:02.434Z,39.63
2018-11-07T16:33:30.681Z,41.53
2018-11-07T16:35:58.825Z,40.63
2018-11-07T16:38:27.084Z,40.83
2018-11-07T16:40:55.268Z,43.63
2018-11-07T16:43:23.365Z,42.53
2018-11-07T16:45:51.669Z,46.73
2018-11-07T16:48:19.862Z,45.07
2018-11-07T16:50:48.058Z,45.23
2018-11-07T16:53:16.305Z,45.13
2018-11-07T16:55:44.456Z,45.63
2018-11-07T16:58:12.627Z,44.73
2018-11-07T17:00:40.812Z,44.30
2018-11-07T17:03:09.029Z,44.93
2018-11-07T17:05:37.188Z,44.27
2018-11-07T17:08:05.390Z,43.37
2018-11-07T17:10:33.873Z,45.10
2018-11-07T17:13:02.160Z,46.10
2018-11-07T17:15:30.462Z,70.13
2018-11-07T17:17:58.584Z,50.10
2018-11-07T17:20:26.742Z,46.07
2018-11-07T17:22:54.920Z,44.33
2018-11-07T17:25:23.097Z,44.97
2018-11-07T17:27:51.282Z,46.50
2018-11-07T17:30:19.655Z,45.43
2018-11-07T17:32:47.858Z,46.27
2018-11-07T17:35:17.216Z,47.77
2018-11-07T17:37:46.000Z,49.13
2018-11-07T17:40:17.325Z,50.63
2018-11-07T17:42:45.887Z,52.20
2018-11-07T17:45:15.904Z,51.97
2018-11-07T17:47:44.380Z,53.80
2018-11-07T17:50:14.708Z,58.97
2018-11-07T17:52:43.043Z,59.83
2018-11-07T17:55:12.318Z,51.13
2018-11-07T17:57:40.532Z,56.47
2018-11-07T18:00:11.164Z,53.90
2018-11-07T18:02:39.348Z,59.17
2018-11-07T18:05:07.807Z,54.00
2018-11-07T18:07:36.407Z,55.57
2018-11-07T18:10:05.023Z,52.13
2018-11-07T18:12:33.172Z,50.10
2018-11-07T18:15:01.345Z,51.23
2018-11-07T18:17:29.518Z,48.07
2018-11-07T18:19:57.722Z,49.93
2018-11-07T18:22:26.015Z,49.63
2018-11-07T18:24:54.152Z,51.70
2018-11-07T18:27:22.382Z,49.70
2018-11-07T18:29:51.147Z,51.40
2018-11-07T18:32:19.426Z,70.07
2018-11-07T18:34:47.732Z,49.97
2018-11-07T18:37:15.945Z,52.37
2018-11-07T18:39:44.187Z,52.93
2018-11-07T18:42:12.412Z,51.10
2018-11-07T18:44:40.720Z,51.77
2018-11-07T18:47:08.871Z,53.97
2018-11-07T18:49:37.059Z,54.67
2018-11-07T18:52:05.311Z,51.83
2018-11-07T18:54:33.762Z,52.50
2018-11-07T18:57:01.996Z,54.03
2018-11-07T18:59:30.216Z,57.20
2018-11-07T19:01:58.468Z,52.20
2018-11-07T19:04:26.811Z,51.80
2018-11-07T19:06:55.119Z,49.20
2018-11-07T19:09:23.376Z,52.90
2018-11-07T19:11:51.646Z,52.53
2018-11-07T19:14:20.521Z,51.67
2018-11-07T19:16:48.841Z,45.60
2018-11-07T19:19:17.128Z,49.97
2018-11-07T19:21:45.381Z,49.67
2018-11-07T19:24:13.578Z,47.20
2018-11-07T19:26:41.921Z,47.77
2018-11-07T19:29:10.117Z,47.10
2018-11-07T19:31:38.414Z,46.20
2018-11-07T19:34:06.736Z,46.43
2018-11-07T19:36:35.252Z,43.03
2018-11-07T19:39:03.500Z,44.80
2018-11-07T19:41:31.829Z,46.60
2018-11-07T19:44:00.085Z,47.20
2018-11-07T19:46:28.324Z,45.43
2018-11-07T19:48:56.558Z,49.60
2018-11-07T19:51:24.841Z,49.53
2018-11-07T19:53:53.115Z,48.13
2018-11-07T19:56:21.883Z,47.00
2018-11-07T19:58:50.134Z,47.93
2018-11-07T20:01:18.357Z,48.07
2018-11-07T20:03:46.650Z,50.03
2018-11-07T20:06:14.889Z,46.33
2018-11-07T20:08:43.167Z,47.90
2018-11-07T20:11:11.765Z,47.67
2018-11-07T20:13:40.303Z,43.23
2018-11-07T20:16:08.729Z,44.17
2018-11-07T20:18:37.673Z,45.27
2018-11-07T20:21:06.705Z,59.53
2018-11-07T20:23:34.925Z,41.67
2018-11-07T20:26:03.686Z,47.00
2018-11-07T20:28:39.386Z,46.57
2018-11-07T20:31:08.715Z,48.10
2018-11-07T20:33:36.971Z,47.90
2018-11-07T20:36:05.885Z,47.03
2018-11-07T20:38:35.010Z,45.17
2018-11-07T20:41:03.495Z,46.47
2018-11-07T20:43:31.873Z,45.80
2018-11-07T20:46:00.129Z,64.27
2018-11-07T20:48:28.413Z,66.43
2018-11-07T20:50:56.678Z,48.70
2018-11-07T20:53:25.918Z,47.40
2018-11-07T20:55:54.747Z,57.17
2018-11-07T20:58:23.512Z,47.03
2018-11-07T21:00:52.487Z,46.87
2018-11-07T21:03:20.766Z,44.93
2018-11-07T21:05:49.007Z,46.83
2018-11-07T21:08:17.246Z,45.20
2018-11-07T21:10:45.542Z,44.93
2018-11-07T21:13:13.840Z,44.40
2018-11-07T21:15:42.145Z,45.80
2018-11-07T21:18:10.409Z,46.07
2018-11-07T21:20:38.689Z,44.13
2018-11-07T21:23:07.029Z,50.03
2018-11-07T21:25:35.976Z,45.13
2018-11-07T21:28:04.268Z,48.07
2018-11-07T21:30:32.607Z,74.27
2018-11-07T21:33:00.896Z,50.20
2018-11-07T21:35:29.193Z,47.77
2018-11-07T21:37:59.595Z,71.60
2018-11-07T21:40:27.888Z,47.07
2018-11-07T21:42:56.497Z,49.10
2018-11-07T21:45:24.711Z,49.27
2018-11-07T21:47:52.933Z,48.77
2018-11-07T21:50:21.143Z,48.30
2018-11-07T21:52:49.396Z,46.37
2018-11-07T21:55:17.666Z,45.47
2018-11-07T21:57:45.919Z,49.77
2018-11-07T22:00:16.650Z,47.77
2018-11-07T22:02:45.010Z,47.57
2018-11-07T22:05:14.006Z,43.57
2018-11-07T22:07:42.562Z,44.70
2018-11-07T22:10:11.698Z,45.10
2018-11-07T22:12:39.919Z,44.57
2018-11-07T22:15:08.730Z,45.80
2018-11-07T22:17:37.164Z,42.87
2018-11-07T22:20:08.267Z,47.30
2018-11-07T22:22:36.460Z,47.53
2018-11-07T22:25:05.011Z,42.53
2018-11-07T22:27:33.310Z,44.37
2018-11-07T22:30:01.490Z,44.23
2018-11-07T22:32:29.631Z,44.33
2018-11-07T22:34:57.781Z,43.50
2018-11-07T22:37:25.975Z,40.50
2018-11-07T22:39:54.142Z,42.27
2018-11-07T22:42:22.258Z,44.20
2018-11-07T22:44:50.439Z,43.67
2018-11-07T22:47:18.557Z,43.57
2018-11-07T22:49:46.717Z,44.00
2018-11-07T22:52:14.862Z,42.83
2018-11-07T22:54:43.118Z,41.20
2018-11-07T22:57:11.445Z,44.03
2018-11-07T22:59:39.611Z,47.30
2018-11-07T23:02:07.803Z,45.33
2018-11-07T23:04:35.991Z,43.10
2018-11-07T23:07:04.190Z,42.57
2018-11-07T23:09:32.293Z,44.30
2018-11-07T23:12:00.398Z,48.87
2018-11-07T23:14:28.558Z,48.23
2018-11-07T23:16:56.697Z,44.50
2018-11-07T23:19:24.910Z,45.67
2018-11-07T23:21:53.500Z,43.93
2018-11-07T23:24:21.769Z,45.83
2018-11-07T23:26:49.936Z,45.37
2018-11-07T23:29:18.169Z,47.53
2018-11-07T23:31:46.305Z,47.87
2018-11-07T23:34:14.451Z,48.67
2018-11-07T23:36:42.602Z,46.87
2018-11-07T23:39:10.983Z,47.23
2018-11-07T23:41:39.137Z,48.70
2018-11-07T23:44:07.298Z,47.90
2018-11-07T23:46:35.421Z,46.47
2018-11-07T23:49:03.549Z,48.23
2018-11-07T23:51:31.695Z,49.17
2018-11-07T23:54:00.046Z,47.07
2018-11-07T23:56:28.189Z,48.70
2018-11-07T23:58:56.307Z,46.80
